Time;durP1;ratioP1;P1;durP2;ratioP2;P2;SDS_P1;SDS_P2;PMS_P1;PMS_P2;Temp;Humidity;BMP_temperature;BMP_pressure;BME280_temperature;BME280_humidity;BME280_pressure;Samples;Min_cycle;Max_cycle;Signal;HPM_P1;HPM_P2
2022/01/27 00:00:38;;;;;;;61.25;29.32;;;;;;;-1.88;66.56;141817.95;1780059;81;21507;-58
2022/01/27 00:05:51;;;;;;;61.90;30.45;;;;;;;-1.88;66.92;141817.95;1780140;81;21455;-59
2022/01/27 00:08:20;;;;;;;61.98;30.12;;;;;;;-1.99;67.02;141793.14;1779811;80;21463;-59
2022/01/27 00:10:52;;;;;;;68.10;32.48;;;;;;;-2.06;67.39;141775.81;1779670;80;21463;-59
2022/01/27 00:13:24;;;;;;;66.80;33.20;;;;;;;-2.14;67.72;141755.92;1770095;81;21036;-59
2022/01/27 00:15:58;;;;;;;73.97;33.80;;;;;;;-2.18;68.24;141746.03;1749172;82;21516;-58
2022/01/27 00:18:20;;;;;;;78.10;34.92;;;;;;;-2.22;68.49;141736.08;1712323;83;21049;-58
2022/01/27 00:20:48;;;;;;;79.85;36.88;;;;;;;-2.27;68.86;141723.69;1749318;82;20992;-59
2022/01/27 00:23:16;;;;;;;71.37;33.30;;;;;;;-2.29;69.25;141718.70;1687740;84;21014;-58
2022/01/27 00:25:43;;;;;;;76.87;34.38;;;;;;;-2.29;69.58;141718.70;1749469;81;20977;-58
2022/01/27 00:28:12;;;;;;;79.25;36.38;;;;;;;-2.27;69.72;141723.69;1749249;81;21021;-59
2022/01/27 00:30:40;;;;;;;87.42;39.20;;;;;;;-2.28;69.89;141721.22;1749517;81;21545;-59
2022/01/27 00:33:07;;;;;;;83.20;36.58;;;;;;;-2.30;70.02;141716.25;1749347;81;21032;-60
2022/01/27 00:35:35;;;;;;;80.25;37.85;;;;;;;-2.31;70.24;141713.78;1765529;81;21020;-59
2022/01/27 00:38:02;;;;;;;73.80;36.58;;;;;;;-2.29;70.38;141719.98;1780108;81;20976;-59
2022/01/27 00:40:30;;;;;;;76.97;37.63;;;;;;;-2.24;70.30;141732.39;1780276;81;21419;-59
2022/01/27 00:42:57;;;;;;;75.90;37.17;;;;;;;-2.20;70.19;141741.06;1751090;81;21454;-59
2022/01/27 00:45:25;;;;;;;73.90;36.88;;;;;;;-2.21;70.15;141739.81;1749351;82;20987;-59
2022/01/27 00:47:53;;;;;;;70.80;36.40;;;;;;;-2.19;70.20;141743.52;1749291;82;21485;-59
2022/01/27 00:50:19;;;;;;;71.82;33.38;;;;;;;-2.14;69.99;141755.92;1747922;81;21004;-59
2022/01/27 00:52:51;;;;;;;70.57;34.05;;;;;;;-2.08;69.75;141769.61;1735298;82;21012;-59
2022/01/27 00:55:17;;;;;;;71.12;32.98;;;;;;;-2.04;69.53;141779.50;1724387;82;20991;-58
2022/01/27 01:00:24;;;;;;;64.95;32.88;;;;;;;-2.01;69.14;141788.22;1724721;82;21461;-59
2022/01/27 01:02:56;;;;;;;60.50;29.48;;;;;;;-1.98;69.03;141794.41;1734674;81;20968;-59
2022/01/27 01:05:41;;;;;;;63.40;28.98;;;;;;;-1.98;68.70;141794.41;1722505;82;21094;-59
2022/01/27 01:07:51;;;;;;;54.67;27.37;;;;;;;-1.97;68.54;141798.11;1719781;82;21044;-59
2022/01/27 01:15:32;;;;;;;80.45;34.35;;;;;;;-2.05;68.24;141778.27;1754602;81;21490;-60
2022/01/27 01:20:37;;;;;;;83.75;37.65;;;;;;;-2.05;68.20;141778.27;1718791;83;21185;-59
2022/01/27 01:33:45;;;;;;;38.53;19.23;;;;;;;-1.99;67.51;141793.14;1693049;83;21009;-57
2022/01/27 01:36:26;;;;;;;42.70;21.07;;;;;;;-2.00;67.57;141790.67;1688144;84;21544;-57
2022/01/27 01:38:45;;;;;;;41.37;18.80;;;;;;;-1.98;67.50;141795.66;1752144;82;20984;-59
2022/01/27 01:41:12;;;;;;;38.17;17.67;;;;;;;-1.95;67.33;141800.63;1724677;82;21176;-59
2022/01/27 01:43:38;;;;;;;35.40;17.35;;;;;;;-1.93;67.23;141805.55;1724771;82;20967;-58
2022/01/27 01:46:05;;;;;;;34.43;16.07;;;;;;;-1.91;67.00;141811.75;1724660;82;21004;-58
2022/01/27 01:48:32;;;;;;;28.75;16.10;;;;;;;-1.87;66.87;141820.47;1724642;82;21461;-59
2022/01/27 01:51:01;;;;;;;32.35;16.97;;;;;;;-1.86;66.60;141824.16;1754057;80;21000;-59
2022/01/27 01:53:28;;;;;;;39.10;18.57;;;;;;;-1.86;66.49;141824.16;1749248;82;21529;-58
2022/01/27 01:55:55;;;;;;;31.42;17.10;;;;;;;-1.89;66.49;141816.72;1749215;82;20988;-58
2022/01/27 01:58:22;;;;;;;29.98;15.43;;;;;;;-1.92;66.54;141808.06;1749221;82;21043;-61
2022/01/27 02:00:49;;;;;;;40.23;15.98;;;;;;;-1.98;66.54;141795.66;1749373;81;21455;-60
2022/01/27 02:03:15;;;;;;;37.20;16.90;;;;;;;-2.00;66.74;141790.67;1749211;82;20957;-60
2022/01/27 02:05:49;;;;;;;41.85;18.32;;;;;;;-2.02;66.75;141785.70;1771074;81;21016;-61
2022/01/27 02:19:23;;;;;;;38.73;15.55;;;;;;;-1.94;66.60;141803.08;1780039;80;21168;-59
2022/01/27 02:22:02;;;;;;;34.88;16.00;;;;;;;-1.94;66.49;141803.08;1780096;81;20988;-59
2022/01/27 02:24:33;;;;;;;39.67;16.00;;;;;;;-1.95;66.50;141801.84;1754773;81;21032;-58
2022/01/27 02:27:00;;;;;;;30.17;15.53;;;;;;;-1.95;66.50;141800.63;1749339;82;20976;-58
2022/01/27 02:29:28;;;;;;;31.25;14.85;;;;;;;-1.95;66.58;141801.84;1749246;82;20968;-58
2022/01/27 02:31:58;;;;;;;30.70;12.68;;;;;;;-1.95;66.56;141801.84;1749267;82;21040;-59
2022/01/27 02:34:25;;;;;;;28.42;14.10;;;;;;;-1.99;66.60;141791.91;1744592;81;21013;-59
2022/01/27 02:36:53;;;;;;;23.38;12.18;;;;;;;-2.02;66.66;141785.70;1746228;81;21664;-60
2022/01/27 02:39:20;;;;;;;25.52;11.55;;;;;;;-2.06;66.74;141775.81;1749162;82;20945;-59
2022/01/27 02:42:04;;;;;;;29.30;11.93;;;;;;;-2.06;66.85;141774.53;1749197;82;21000;-59
2022/01/27 02:44:57;;;;;;;28.42;11.75;;;;;;;-2.07;66.84;141773.30;1749476;81;20992;-60
2022/01/27 02:47:25;;;;;;;23.92;10.55;;;;;;;-2.09;66.82;141768.33;1749162;82;21040;-60
2022/01/27 02:49:53;;;;;;;27.17;12.25;;;;;;;-2.12;66.97;141760.89;1749176;82;20992;-60
2022/01/27 02:52:20;;;;;;;24.67;11.75;;;;;;;-2.08;67.07;141770.84;1748915;82;21063;-59
2022/01/27 02:54:47;;;;;;;26.82;12.40;;;;;;;-2.07;67.02;141772.06;1779696;81;21474;-57
2022/01/27 02:57:14;;;;;;;29.52;12.47;;;;;;;-2.10;67.14;141765.86;1780032;80;20971;-57
2022/01/27 02:59:41;;;;;;;26.85;12.35;;;;;;;-2.08;67.17;141770.84;1780139;80;20960;-58
2022/01/27 03:02:08;;;;;;;24.63;11.08;;;;;;;-2.08;67.17;141769.61;1769662;81;21028;-57
2022/01/27 03:04:35;;;;;;;22.65;10.20;;;;;;;-2.07;67.21;141772.06;1712242;83;21017;-58
2022/01/27 03:07:07;;;;;;;22.95;9.83;;;;;;;-2.06;67.19;141775.81;1780038;80;20969;-59
2022/01/27 03:09:36;;;;;;;28.55;12.80;;;;;;;-2.03;67.15;141783.23;1749368;81;20970;-59
2022/01/27 03:12:07;;;;;;;29.10;12.13;;;;;;;-2.05;67.03;141778.27;1749771;81;20965;-59
2022/01/27 03:14:35;;;;;;;28.70;12.88;;;;;;;-2.06;66.97;141775.81;1713577;84;20993;-59
2022/01/27 03:17:05;;;;;;;24.80;12.47;;;;;;;-2.08;67.01;141770.84;1749198;82;21027;-59
2022/01/27 03:19:32;;;;;;;25.25;12.35;;;;;;;-2.06;67.04;141774.53;1749221;81;21046;-58
2022/01/27 03:22:02;;;;;;;26.37;10.82;;;;;;;-2.10;66.99;141764.63;1749169;82;21012;-58
2022/01/27 03:24:29;;;;;;;18.05;10.05;;;;;;;-2.12;67.07;141760.89;1749174;81;21482;-58
2022/01/27 03:26:56;;;;;;;22.87;9.93;;;;;;;-2.13;67.10;141757.20;1749170;81;21035;-59
2022/01/27 03:29:23;;;;;;;23.35;10.45;;;;;;;-2.09;67.00;141768.33;1749159;82;21426;-59
2022/01/27 03:31:50;;;;;;;20.75;10.75;;;;;;;-2.09;66.90;141768.33;1749802;81;20956;-59
2022/01/27 03:34:17;;;;;;;19.75;9.53;;;;;;;-2.07;66.76;141772.06;1749274;82;21040;-56
2022/01/27 03:36:44;;;;;;;18.75;9.35;;;;;;;-2.11;66.60;141763.41;1749261;82;21001;-56
2022/01/27 03:39:14;;;;;;;17.50;8.18;;;;;;;-2.13;66.66;141757.20;1749325;82;20976;-57
2022/01/27 03:41:46;;;;;;;20.15;9.80;;;;;;;-2.25;66.50;141729.88;1749490;81;20969;-57
2022/01/27 03:44:08;;;;;;;22.65;8.60;;;;;;;-2.52;67.01;141662.91;1748857;81;21027;-57
2022/01/27 03:46:35;;;;;;;18.45;9.50;;;;;;;-2.71;67.53;141617.05;1749156;82;21463;-57
2022/01/27 03:49:01;;;;;;;19.15;8.45;;;;;;;-2.77;67.94;141602.14;1749114;81;20976;-56
2022/01/27 03:51:28;;;;;;;19.98;8.93;;;;;;;-2.79;68.08;141597.22;1751501;82;21015;-56
2022/01/27 03:53:55;;;;;;;18.12;8.98;;;;;;;-2.79;68.10;141597.22;1757116;82;20973;-56
2022/01/27 03:56:22;;;;;;;20.70;9.40;;;;;;;-2.81;68.10;141593.48;1757257;80;20952;-58
2022/01/27 03:58:48;;;;;;;23.10;10.78;;;;;;;-2.86;68.14;141582.31;1757348;82;20977;-58
2022/01/27 04:01:17;;;;;;;20.40;10.20;;;;;;;-2.91;68.33;141569.91;1757908;80;21023;-58
2022/01/27 04:03:44;;;;;;;22.75;10.68;;;;;;;-2.94;68.42;141562.50;1757427;81;20987;-58
2022/01/27 04:06:11;;;;;;;28.60;12.55;;;;;;;-2.98;68.55;141552.55;1757349;82;21000;-57
2022/01/27 04:08:39;;;;;;;31.95;14.53;;;;;;;-3.03;68.69;141538.94;1757338;82;21545;-58
2022/01/27 04:11:08;;;;;;;32.30;14.05;;;;;;;-3.07;68.87;141530.28;1757270;81;21020;-59
2022/01/27 04:13:36;;;;;;;34.78;15.15;;;;;;;-3.10;69.03;141522.84;1757271;82;20988;-59
2022/01/27 04:16:05;;;;;;;34.40;14.90;;;;;;;-3.21;69.31;141496.78;1757277;82;20960;-59
2022/01/27 04:18:32;;;;;;;27.75;14.53;;;;;;;-3.27;69.64;141483.16;1757266;82;21000;-59
2022/01/27 04:20:58;;;;;;;36.35;16.23;;;;;;;-3.31;69.84;141473.28;1764367;80;21039;-59
2022/01/27 04:23:26;;;;;;;32.15;15.68;;;;;;;-3.34;70.05;141465.80;1788429;80;20949;-59
2022/01/27 04:25:52;;;;;;;27.32;13.40;;;;;;;-3.39;70.28;141453.41;1788342;80;21477;-60
2022/01/27 04:28:25;;;;;;;32.95;15.38;;;;;;;-3.50;70.71;141426.17;1788312;80;21543;-59
2022/01/27 04:30:48;;;;;;;29.37;13.10;;;;;;;-3.62;71.04;141396.44;1784199;80;21455;-58
2022/01/27 04:33:17;;;;;;;30.48;13.60;;;;;;;-3.71;71.25;141375.39;1757259;82;21128;-59
2022/01/27 04:35:47;;;;;;;28.45;12.45;;;;;;;-3.75;71.54;141366.69;1757307;82;21039;-59
2022/01/27 04:41:10;;;;;;;30.12;14.60;;;;;;;-3.79;71.92;141356.81;1757307;80;20972;-59
2022/01/27 04:48:49;;;;;;;38.28;15.45;;;;;;;-3.77;72.31;141361.73;1757384;80;21015;-59
2022/01/27 04:51:15;;;;;;;32.98;14.70;;;;;;;-3.76;72.41;141363.00;1756634;82;21003;-59
2022/01/27 04:53:54;;;;;;;27.00;12.78;;;;;;;-3.79;72.62;141356.81;1757087;82;21481;-59
2022/01/27 04:56:16;;;;;;;29.30;11.90;;;;;;;-3.86;72.95;141338.23;1757196;80;20976;-59
2022/01/27 04:58:46;;;;;;;23.18;11.00;;;;;;;-4.00;73.64;141306.00;1757334;80;20976;-59
2022/01/27 05:01:12;;;;;;;25.17;11.00;;;;;;;-4.11;74.45;141278.78;1757152;80;21010;-57
2022/01/27 05:03:45;;;;;;;23.62;9.80;;;;;;;-4.17;74.86;141263.94;1757937;80;21446;-58
2022/01/27 05:06:07;;;;;;;29.60;12.65;;;;;;;-4.17;75.52;141265.17;1778034;80;20992;-58
2022/01/27 05:08:34;;;;;;;25.82;12.53;;;;;;;-4.14;75.68;141271.36;1788255;80;21073;-58
2022/01/27 05:11:07;;;;;;;26.73;13.13;;;;;;;-4.09;75.72;141282.52;1788270;80;20945;-58
2022/01/27 05:13:37;;;;;;;30.27;13.08;;;;;;;-4.03;75.77;141297.34;1787648;80;21478;-57
2022/01/27 05:15:58;;;;;;;34.18;14.50;;;;;;;-4.01;75.70;141303.55;1756625;80;21004;-57
2022/01/27 05:18:25;;;;;;;30.52;14.90;;;;;;;-3.97;75.66;141312.19;1757353;82;21509;-57
2022/01/27 05:20:55;;;;;;;27.17;12.73;;;;;;;-3.93;75.60;141322.13;1757295;82;20972;-59
2022/01/27 05:23:21;;;;;;;26.45;11.97;;;;;;;-3.92;75.49;141324.58;1757237;81;21000;-59
2022/01/27 05:25:48;;;;;;;25.35;12.28;;;;;;;-4.00;75.87;141304.78;1782346;80;20940;-59
2022/01/27 05:28:14;;;;;;;25.45;12.63;;;;;;;-4.06;76.23;141291.16;1788333;80;20980;-58
2022/01/27 05:30:41;;;;;;;24.95;11.18;;;;;;;-4.11;76.72;141277.55;1788352;80;21485;-59
2022/01/27 05:33:09;;;;;;;28.23;12.82;;;;;;;-4.19;77.66;141260.20;1785271;80;20996;-59
2022/01/27 05:35:36;;;;;;;24.25;12.90;;;;;;;-4.23;78.05;141250.28;1757262;82;20952;-59
2022/01/27 05:38:05;;;;;;;23.25;11.63;;;;;;;-4.19;78.21;141260.20;1757241;82;20984;-60
2022/01/27 05:40:32;;;;;;;25.90;12.58;;;;;;;-4.19;78.71;141260.20;1757295;82;20988;-59
2022/01/27 05:42:59;;;;;;;30.10;13.55;;;;;;;-4.20;78.86;141257.75;1757468;80;21475;-57
2022/01/27 05:45:25;;;;;;;28.83;13.53;;;;;;;-4.11;78.87;141277.55;1757201;82;21004;-57
2022/01/27 05:47:52;;;;;;;27.25;14.10;;;;;;;-4.03;78.78;141297.34;1759495;80;20980;-57
2022/01/27 05:50:19;;;;;;;28.95;14.83;;;;;;;-4.00;78.57;141304.78;1757256;82;21124;-57
2022/01/27 05:52:46;;;;;;;26.82;14.73;;;;;;;-3.95;78.51;141317.16;1752227;81;21036;-57
2022/01/27 05:55:13;;;;;;;29.82;15.08;;;;;;;-3.91;78.45;141325.84;1749217;81;20985;-60
2022/01/27 05:57:40;;;;;;;28.02;14.55;;;;;;;-3.87;78.47;141336.97;1749270;81;20953;-58
2022/01/27 06:00:08;;;;;;;34.92;16.85;;;;;;;-3.81;78.40;141351.84;1749185;82;21012;-58
2022/01/27 06:02:41;;;;;;;32.55;16.70;;;;;;;-3.70;78.16;141377.84;1749206;82;20988;-57
2022/01/27 06:05:09;;;;;;;33.48;15.70;;;;;;;-3.61;77.75;141398.89;1713434;84;20993;-57
2022/01/27 06:07:36;;;;;;;38.90;15.38;;;;;;;-3.59;77.53;141405.09;1749324;82;20992;-58
2022/01/27 06:10:03;;;;;;;33.67;16.37;;;;;;;-3.41;77.32;141448.50;1706994;83;21444;-57
2022/01/27 06:12:30;;;;;;;34.13;15.40;;;;;;;-3.30;76.49;141475.73;1769968;80;20985;-58
2022/01/27 06:14:58;;;;;;;35.90;16.62;;;;;;;-3.32;76.63;141469.55;1770029;81;20926;-58
2022/01/27 06:17:25;;;;;;;32.85;14.90;;;;;;;-3.20;76.60;141498.06;1763318;81;21012;-57
2022/01/27 06:19:55;;;;;;;32.98;16.70;;;;;;;-2.98;76.05;141552.55;1749220;81;21016;-57
2022/01/27 06:22:21;;;;;;;36.70;18.25;;;;;;;-2.92;75.59;141566.22;1749197;81;21437;-58
2022/01/27 06:24:48;;;;;;;27.87;14.63;;;;;;;-2.47;75.77;141676.58;1749139;81;21092;-59
2022/01/27 06:27:15;;;;;;;34.00;15.50;;;;;;;-1.46;72.50;141919.75;1713336;83;21144;-60
2022/01/27 06:29:41;;;;;;;33.65;15.75;;;;;;;-0.38;70.82;142181.77;1749183;82;21036;-59
2022/01/27 06:32:08;;;;;;;29.82;16.02;;;;;;;0.75;66.83;142457.75;1749175;82;20996;-60
2022/01/27 06:34:35;;;;;;;26.50;14.85;;;;;;;1.74;64.05;142697.92;1710400;84;21040;-60
2022/01/27 06:37:02;;;;;;;29.90;16.40;;;;;;;2.57;60.15;142899.66;1749198;82;21549;-60
2022/01/27 06:39:29;;;;;;;25.45;14.98;;;;;;;3.13;58.01;143036.75;1713349;84;21502;-60
2022/01/27 06:41:56;;;;;;;28.38;16.55;;;;;;;3.50;56.21;143125.25;1749155;82;20999;-61
2022/01/27 06:44:22;;;;;;;27.93;15.50;;;;;;;3.28;56.02;143071.63;1713328;83;21035;-60
2022/01/27 06:46:49;;;;;;;32.67;16.55;;;;;;;2.67;56.15;142924.61;1749144;82;21003;-60
2022/01/27 06:49:17;;;;;;;29.42;17.05;;;;;;;2.10;56.81;142785.08;1713325;83;21510;-60
2022/01/27 06:51:45;;;;;;;30.70;18.30;;;;;;;1.20;58.28;142566.02;1749018;82;20988;-59
2022/01/27 06:54:12;;;;;;;30.55;16.12;;;;;;;0.54;60.10;142405.55;1694029;83;21038;-61
2022/01/27 06:56:40;;;;;;;31.82;17.62;;;;;;;0.10;61.48;142299.88;1749298;82;20984;-60
2022/01/27 06:59:06;;;;;;;35.20;17.70;;;;;;;-0.38;63.12;142183.05;1749971;81;20981;-60
2022/01/27 07:01:33;;;;;;;34.50;18.00;;;;;;;-0.61;64.07;142125.86;1749314;81;20996;-61
2022/01/27 07:04:01;;;;;;;35.10;19.52;;;;;;;-0.78;64.98;142086.13;1749134;82;21035;-60
2022/01/27 07:06:28;;;;;;;36.15;18.23;;;;;;;-0.91;66.02;142053.84;1749790;81;20973;-60
2022/01/27 07:08:55;;;;;;;38.02;19.52;;;;;;;-1.17;66.96;141991.77;1749140;81;21001;-59
2022/01/27 07:11:22;;;;;;;37.05;19.02;;;;;;;-1.31;68.18;141956.98;1749063;81;20986;-60
2022/01/27 07:13:48;;;;;;;39.13;19.80;;;;;;;-1.30;68.72;141959.44;1749083;81;21522;-59
2022/01/27 07:16:15;;;;;;;34.50;19.52;;;;;;;-1.25;69.20;141971.86;1713330;83;20981;-59
2022/01/27 07:18:42;;;;;;;33.98;18.55;;;;;;;-1.25;69.47;141971.86;1749128;82;21031;-59
2022/01/27 07:21:09;;;;;;;35.83;19.12;;;;;;;-1.25;69.93;141970.63;1707067;83;21478;-59
2022/01/27 07:23:36;;;;;;;36.33;19.73;;;;;;;-1.31;70.25;141956.98;1711554;83;21109;-59
2022/01/27 07:26:03;;;;;;;36.90;20.27;;;;;;;-1.37;71.12;141942.11;1713243;84;20977;-58
2022/01/27 07:28:30;;;;;;;32.03;17.52;;;;;;;-1.41;71.65;141932.16;1749116;82;21008;-58
2022/01/27 07:30:57;;;;;;;36.75;20.20;;;;;;;-1.40;72.31;141934.62;1750788;81;20922;-59
2022/01/27 07:33:23;;;;;;;40.70;19.57;;;;;;;-1.42;72.89;141930.92;1753430;80;20926;-60
2022/01/27 07:35:50;;;;;;;43.13;18.67;;;;;;;-1.49;73.29;141913.53;1753522;81;21000;-59
2022/01/27 07:38:17;;;;;;;33.02;18.10;;;;;;;-1.60;74.08;141886.25;1760510;80;20954;-60
2022/01/27 07:40:43;;;;;;;34.38;17.95;;;;;;;-1.54;74.55;141902.36;1753485;81;20953;-60
2022/01/27 07:43:11;;;;;;;36.98;19.75;;;;;;;-1.44;74.60;141924.72;1749268;81;20963;-58
2022/01/27 07:45:37;;;;;;;37.08;20.12;;;;;;;-1.40;74.61;141934.62;1753415;81;21419;-59
2022/01/27 07:48:05;;;;;;;35.13;17.87;;;;;;;-1.49;75.06;141912.31;1761381;80;21596;-59
2022/01/27 07:50:31;;;;;;;34.35;19.07;;;;;;;-1.43;75.49;141927.19;1750597;81;21427;-59
2022/01/27 07:52:58;;;;;;;41.40;20.10;;;;;;;-1.45;75.42;141922.20;1755174;81;20961;-59
2022/01/27 07:55:25;;;;;;;36.03;18.35;;;;;;;-1.49;76.11;141912.31;1762629;81;20985;-59
2022/01/27 07:57:51;;;;;;;40.35;21.23;;;;;;;-1.41;76.33;141932.16;1766737;81;20957;-59
2022/01/27 08:00:20;;;;;;;42.95;22.67;;;;;;;-1.41;76.50;141932.16;1760626;81;20968;-59
2022/01/27 08:02:48;;;;;;;40.88;21.80;;;;;;;-1.24;76.66;141974.38;1747961;81;20962;-60
2022/01/27 08:05:15;;;;;;;38.53;22.42;;;;;;;-1.08;76.33;142011.63;1742495;82;21026;-59
2022/01/27 08:07:42;;;;;;;41.00;21.35;;;;;;;-0.90;76.33;142056.31;1742429;82;20987;-59
2022/01/27 08:10:09;;;;;;;37.58;21.42;;;;;;;-0.84;75.74;142069.97;1746372;81;20949;-63
2022/01/27 08:12:42;;;;;;;40.98;22.55;;;;;;;-0.73;75.79;142098.55;1749210;81;21045;-59
2022/01/27 08:15:14;;;;;;;39.92;22.17;;;;;;;-0.61;75.48;142127.14;1772966;81;20973;-58
2022/01/27 08:17:41;;;;;;;42.53;23.05;;;;;;;-0.61;74.88;142125.86;1746733;81;21012;-59
2022/01/27 08:20:09;;;;;;;47.93;24.70;;;;;;;-0.77;75.25;142088.59;1735875;81;21489;-61
2022/01/27 08:22:47;;;;;;;46.02;24.27;;;;;;;-0.75;75.76;142093.56;1750234;80;21056;-61
2022/01/27 08:25:14;;;;;;;47.25;24.98;;;;;;;-0.67;75.78;142113.44;1753735;81;21000;-59
2022/01/27 08:27:44;;;;;;;51.90;25.85;;;;;;;-0.61;75.29;142125.86;1762058;81;21039;-60
2022/01/27 08:30:11;;;;;;;46.42;25.55;;;;;;;-0.77;75.57;142088.59;1753219;81;20988;-60
2022/01/27 08:32:56;;;;;;;47.33;26.48;;;;;;;-0.67;76.04;142113.44;1741966;82;21474;-59
2022/01/27 08:35:10;;;;;;;48.20;26.33;;;;;;;-0.48;75.73;142158.19;1741087;81;21015;-59
2022/01/27 08:37:37;;;;;;;56.60;28.10;;;;;;;-0.32;75.41;142197.94;1752546;81;20988;-60
2022/01/27 08:40:05;;;;;;;48.15;26.05;;;;;;;-0.44;75.31;142168.11;1762078;80;20999;-58
2022/01/27 08:42:32;;;;;;;51.18;25.48;;;;;;;-0.51;76.02;142150.70;1756699;80;21027;-60
2022/01/27 08:44:59;;;;;;;49.95;26.33;;;;;;;-0.49;76.12;142156.91;1742752;81;21016;-58
2022/01/27 08:47:26;;;;;;;46.42;25.68;;;;;;;-0.44;76.15;142168.11;1758342;81;21020;-59
2022/01/27 08:49:54;;;;;;;45.28;26.97;;;;;;;-0.40;76.27;142176.83;1762060;81;21027;-60
2022/01/27 08:52:20;;;;;;;50.48;28.70;;;;;;;-0.48;76.58;142159.44;1750153;80;20984;-59
2022/01/27 08:54:47;;;;;;;48.28;26.65;;;;;;;-0.36;76.67;142187.97;1748804;82;20996;-59
2022/01/27 08:57:14;;;;;;;49.93;27.02;;;;;;;-0.24;76.70;142216.58;1712889;83;21056;-59
2022/01/27 08:59:41;;;;;;;40.75;24.40;;;;;;;-0.13;76.75;142243.89;1748655;82;21015;-59
2022/01/27 09:02:07;;;;;;;45.58;26.82;;;;;;;-0.06;76.44;142260.06;1713204;83;21064;-59
2022/01/27 09:04:35;;;;;;;46.92;24.05;;;;;;;-0.18;76.73;142231.47;1712924;83;21434;-60
2022/01/27 09:07:03;;;;;;;45.92;23.57;;;;;;;-0.16;77.88;142235.22;1748639;82;20982;-59
2022/01/27 09:09:30;;;;;;;38.67;23.35;;;;;;;-0.17;78.04;142233.98;1748649;82;21003;-59
2022/01/27 09:11:58;;;;;;;41.73;22.32;;;;;;;-0.16;78.50;142235.22;1751320;81;21054;-59
2022/01/27 09:14:31;;;;;;;43.48;22.67;;;;;;;-0.19;78.95;142229.00;1749542;80;21003;-60
2022/01/27 09:16:58;;;;;;;38.75;22.90;;;;;;;-0.14;79.47;142240.19;1710985;83;21086;-59
2022/01/27 09:19:26;;;;;;;40.63;23.07;;;;;;;0.10;79.66;142298.59;1766504;81;21521;-60
2022/01/27 09:21:54;;;;;;;37.10;21.97;;;;;;;0.36;79.80;142362.03;1773080;81;21027;-59
2022/01/27 09:24:37;;;;;;;39.10;22.58;;;;;;;0.67;79.08;142436.64;1779630;81;21055;-59
2022/01/27 09:27:01;;;;;;;40.52;24.37;;;;;;;0.69;77.56;142442.86;1758927;80;21505;-59
2022/01/27 09:29:28;;;;;;;39.18;25.23;;;;;;;0.59;77.41;142419.22;1712834;83;21020;-59
2022/01/27 09:31:58;;;;;;;42.93;24.75;;;;;;;0.41;78.25;142374.47;1748877;81;21063;-60
2022/01/27 09:34:25;;;;;;;42.58;25.62;;;;;;;0.54;78.72;142406.78;1748707;82;21012;-59
2022/01/27 09:36:53;;;;;;;46.25;27.75;;;;;;;0.71;78.34;142446.56;1753477;81;21067;-59
2022/01/27 09:39:22;;;;;;;42.80;25.30;;;;;;;0.82;77.89;142475.19;1779428;80;21000;-58
2022/01/27 09:41:54;;;;;;;50.43;26.23;;;;;;;0.93;77.98;142501.30;1775339;81;20976;-59
2022/01/27 09:44:27;;;;;;;51.90;28.57;;;;;;;1.04;77.63;142528.69;1774701;80;21027;-59
2022/01/27 09:46:55;;;;;;;50.55;27.77;;;;;;;1.14;77.20;142551.06;1757391;80;21003;-59
2022/01/27 09:49:31;;;;;;;43.17;23.75;;;;;;;1.16;76.77;142556.05;1749172;81;20984;-59
2022/01/27 09:51:50;;;;;;;47.05;25.10;;;;;;;0.96;75.96;142508.75;1747382;82;21048;-59
2022/01/27 09:54:17;;;;;;;43.90;25.40;;;;;;;0.67;77.07;142436.64;1702147;83;21001;-59
2022/01/27 09:56:44;;;;;;;39.40;23.25;;;;;;;0.56;77.54;142411.77;1779372;80;21051;-61
2022/01/27 09:59:11;;;;;;;40.75;24.18;;;;;;;0.16;78.30;142314.77;1779357;80;20972;-61
2022/01/27 10:01:42;;;;;;;40.38;24.07;;;;;;;0.05;79.57;142287.44;1775271;81;21533;-59
2022/01/27 10:04:09;;;;;;;46.35;24.70;;;;;;;0.09;79.98;142297.36;1750175;81;20983;-60
2022/01/27 10:06:37;;;;;;;44.63;25.70;;;;;;;0.14;80.33;142309.78;1710952;83;20990;-59
2022/01/27 10:09:24;;;;;;;44.08;25.92;;;;;;;0.24;80.45;142333.41;1752382;81;21005;-60
2022/01/27 10:11:50;;;;;;;44.13;25.37;;;;;;;0.30;80.53;142348.31;1748616;81;21032;-59
2022/01/27 10:14:32;;;;;;;45.20;26.90;;;;;;;0.40;80.46;142371.95;1748714;81;21466;-59
2022/01/27 10:17:00;;;;;;;48.38;28.80;;;;;;;0.52;80.39;142401.80;1773580;81;20992;-60
2022/01/27 10:19:27;;;;;;;48.10;27.70;;;;;;;0.55;80.01;142409.25;1779480;80;20988;-59
2022/01/27 10:22:06;;;;;;;48.78;30.57;;;;;;;0.42;80.62;142376.94;1772355;81;21025;-61
2022/01/27 10:24:35;;;;;;;51.15;29.95;;;;;;;0.36;81.01;142362.03;1753752;81;21055;-60
2022/01/27 10:27:32;;;;;;;48.98;28.25;;;;;;;0.37;81.26;142364.50;1755596;81;21966;-60
2022/01/27 10:32:41;;;;;;;49.73;28.87;;;;;;;0.23;81.68;142329.67;1748820;82;21094;-60
2022/01/27 10:35:10;;;;;;;46.77;27.13;;;;;;;0.18;81.94;142319.75;1753678;81;21012;-58
2022/01/27 10:38:09;;;;;;;49.60;28.47;;;;;;;0.03;82.60;142282.47;1749122;81;21019;-60
2022/01/27 10:40:42;;;;;;;48.80;27.48;;;;;;;-0.06;83.24;142260.06;1748642;81;20976;-59
2022/01/27 10:43:23;;;;;;;45.90;28.23;;;;;;;-0.04;83.60;142265.05;1748765;80;21028;-59
2022/01/27 10:46:19;;;;;;;54.83;29.00;;;;;;;-0.01;83.90;142272.50;1748575;81;20966;-60
2022/01/27 10:48:51;;;;;;;56.37;31.30;;;;;;;-0.03;84.15;142267.52;1749171;80;21468;-59
2022/01/27 10:51:25;;;;;;;51.60;30.48;;;;;;;-0.04;84.60;142266.28;1754919;80;21548;-59
2022/01/27 10:54:04;;;;;;;49.13;28.62;;;;;;;-0.01;84.84;142273.73;1756329;81;21029;-60
2022/01/27 10:56:34;;;;;;;49.53;30.20;;;;;;;-0.02;85.03;142271.27;1743738;80;21043;-59
2022/01/27 10:59:11;;;;;;;50.12;28.57;;;;;;;0.00;85.17;142275.02;1765330;80;21187;-59
2022/01/27 11:01:50;;;;;;;57.93;31.02;;;;;;;0.06;85.25;142289.91;1762033;80;21537;-61
2022/01/27 11:04:20;;;;;;;53.68;31.65;;;;;;;0.14;85.21;142308.55;1761250;80;21495;-60
2022/01/27 11:07:01;;;;;;;52.73;30.05;;;;;;;0.24;85.00;142332.19;1757203;80;21005;-61
2022/01/27 11:09:34;;;;;;;48.87;29.18;;;;;;;0.26;84.87;142337.16;1756770;80;20965;-60
2022/01/27 11:12:00;;;;;;;57.60;30.65;;;;;;;0.24;84.89;142333.41;1756886;81;21534;-59
2022/01/27 11:14:26;;;;;;;50.50;28.23;;;;;;;0.29;85.04;142345.84;1756716;82;21192;-60
2022/01/27 11:17:00;;;;;;;51.73;27.00;;;;;;;0.35;84.75;142359.52;1763540;80;21053;-60
2022/01/27 11:19:42;;;;;;;49.75;26.62;;;;;;;0.26;84.82;142337.16;1755260;82;21015;-61
2022/01/27 11:22:01;;;;;;;48.65;26.97;;;;;;;0.17;85.23;142317.23;1752494;82;21502;-60
2022/01/27 11:24:31;;;;;;;51.20;29.63;;;;;;;0.15;85.42;142312.30;1773754;80;21003;-59
2022/01/27 11:27:01;;;;;;;53.33;29.42;;;;;;;0.18;85.48;142319.75;1782779;80;21125;-59
2022/01/27 11:29:29;;;;;;;49.53;28.70;;;;;;;0.26;85.51;142337.16;1756808;82;20965;-59
2022/01/27 11:32:18;;;;;;;50.98;28.92;;;;;;;0.34;85.47;142358.28;1758583;80;20995;-60
2022/01/27 11:34:53;;;;;;;56.77;31.55;;;;;;;0.34;85.36;142358.28;1756819;82;21148;-59
2022/01/27 11:37:37;;;;;;;50.83;28.25;;;;;;;0.38;85.69;142368.25;1756988;80;21035;-59
2022/01/27 11:40:08;;;;;;;56.88;29.32;;;;;;;0.51;85.72;142399.33;1757662;80;20988;-60
2022/01/27 11:42:46;;;;;;;54.53;28.98;;;;;;;0.60;85.71;142421.69;1757155;80;21031;-61
2022/01/27 11:45:24;;;;;;;48.73;28.50;;;;;;;0.55;85.98;142408.02;1754876;82;21015;-59
2022/01/27 11:48:13;;;;;;;58.02;32.30;;;;;;;0.50;86.68;142396.81;1756721;82;21027;-61
2022/01/27 11:50:50;;;;;;;60.67;32.73;;;;;;;0.52;87.19;142401.80;1755039;81;21502;-60
2022/01/27 11:53:14;;;;;;;63.08;34.25;;;;;;;0.63;87.29;142429.14;1755161;81;21035;-59
2022/01/27 11:55:45;;;;;;;61.15;34.55;;;;;;;0.73;87.38;142451.53;1748968;81;21012;-60
2022/01/27 11:58:23;;;;;;;58.60;34.23;;;;;;;0.82;87.45;142473.95;1760311;81;21055;-59
2022/01/27 12:01:16;;;;;;;66.47;35.20;;;;;;;0.89;87.33;142490.09;1760701;80;21032;-61
2022/01/27 12:04:07;;;;;;;55.90;32.48;;;;;;;0.96;87.34;142507.52;1748773;82;21007;-60
2022/01/27 12:06:53;;;;;;;55.33;32.15;;;;;;;1.03;87.43;142526.17;1750033;81;21030;-59